createdAt,value
2023-05-18T00:02:09.978Z,2.80
2023-05-18T00:05:37.133Z,3.40
2023-05-18T00:09:04.237Z,3.50
2023-05-18T00:12:31.221Z,3.60
2023-05-18T00:15:58.269Z,2.80
2023-05-18T00:19:26.384Z,3.00
2023-05-18T00:22:55.349Z,3.10
2023-05-18T00:26:22.340Z,3.10
2023-05-18T00:29:50.488Z,2.80
2023-05-18T00:33:17.912Z,2.50
2023-05-18T00:36:44.915Z,2.70
2023-05-18T00:40:14.953Z,2.90
2023-05-18T00:43:44.863Z,3.00
2023-05-18T00:47:12.011Z,3.60
2023-05-18T00:50:39.665Z,2.80
2023-05-18T00:54:08.217Z,2.80
2023-05-18T00:57:36.978Z,2.50
2023-05-18T01:01:06.380Z,3.00
2023-05-18T01:04:34.545Z,3.20
2023-05-18T01:08:03.316Z,2.90
2023-05-18T01:11:42.127Z,2.90
2023-05-18T01:15:15.028Z,3.60
2023-05-18T01:18:49.576Z,2.80
2023-05-18T01:22:33.811Z,3.00
2023-05-18T01:26:26.530Z,3.20
2023-05-18T01:29:57.411Z,3.30
2023-05-18T01:33:24.898Z,2.90
2023-05-18T01:36:51.704Z,3.30
2023-05-18T01:40:18.797Z,3.10
2023-05-18T01:43:54.248Z,3.40
2023-05-18T01:47:21.848Z,2.40
2023-05-18T01:50:53.734Z,3.30
2023-05-18T01:54:23.975Z,2.50
2023-05-18T01:57:54.109Z,3.20
2023-05-18T02:01:23.364Z,2.30
2023-05-18T02:04:50.876Z,3.10
2023-05-18T02:08:18.333Z,3.00
2023-05-18T02:11:47.125Z,2.70
2023-05-18T02:15:14.513Z,3.20
2023-05-18T02:18:41.736Z,3.20
2023-05-18T02:22:09.635Z,3.20
2023-05-18T02:25:37.418Z,2.80
2023-05-18T02:29:04.407Z,2.90
2023-05-18T02:32:33.720Z,2.50
2023-05-18T02:36:01.324Z,2.80
2023-05-18T02:39:27.890Z,2.60
2023-05-18T02:42:57.355Z,2.70
2023-05-18T02:46:26.116Z,2.40
2023-05-18T02:49:53.256Z,3.00
2023-05-18T02:53:20.369Z,2.30
2023-05-18T02:56:48.032Z,2.10
2023-05-18T03:00:23.703Z,2.10
2023-05-18T03:03:53.414Z,2.70
2023-05-18T03:07:20.894Z,2.60
2023-05-18T03:10:48.072Z,2.10
2023-05-18T03:14:15.159Z,2.50
2023-05-18T03:17:44.098Z,3.10
2023-05-18T03:21:14.051Z,3.20
2023-05-18T03:24:41.604Z,2.50
2023-05-18T03:28:13.038Z,2.70
2023-05-18T03:31:40.599Z,3.00
2023-05-18T03:35:09.843Z,2.70
2023-05-18T03:38:36.679Z,3.10
2023-05-18T03:42:08.054Z,2.80
2023-05-18T03:45:35.077Z,3.00
2023-05-18T03:49:03.667Z,2.80
2023-05-18T03:52:35.273Z,3.20
2023-05-18T03:56:02.089Z,3.30
2023-05-18T03:59:30.037Z,3.40
2023-05-18T04:02:57.847Z,2.30
2023-05-18T04:06:26.425Z,2.90
2023-05-18T04:09:53.907Z,2.70
2023-05-18T04:13:20.763Z,2.80
2023-05-18T04:16:48.148Z,2.80
2023-05-18T04:20:16.446Z,2.70
2023-05-18T04:23:43.163Z,2.80
2023-05-18T04:27:12.363Z,3.00
2023-05-18T04:30:39.815Z,2.60
2023-05-18T04:34:09.301Z,2.20
2023-05-18T04:37:36.835Z,2.20
2023-05-18T04:41:06.898Z,1.90
2023-05-18T04:44:35.019Z,2.30
2023-05-18T04:48:03.273Z,2.10
2023-05-18T04:51:30.039Z,2.40
2023-05-18T04:54:57.372Z,2.00
2023-05-18T04:58:23.943Z,2.00
2023-05-18T05:01:50.670Z,2.60
2023-05-18T05:05:18.836Z,1.60
2023-05-18T05:08:45.810Z,2.00
2023-05-18T05:12:13.942Z,1.70
2023-05-18T05:15:40.861Z,1.90
2023-05-18T05:19:07.690Z,1.80
2023-05-18T05:22:35.180Z,2.30
2023-05-18T05:26:04.374Z,2.00
2023-05-18T05:29:31.829Z,2.50
2023-05-18T05:33:00.666Z,2.00
2023-05-18T05:36:28.551Z,1.70
2023-05-18T05:39:56.854Z,2.20
2023-05-18T05:43:23.712Z,2.00
2023-05-18T05:46:51.483Z,1.80
2023-05-18T05:50:19.413Z,2.30
2023-05-18T05:53:49.730Z,2.20
2023-05-18T05:57:17.918Z,1.70
2023-05-18T06:00:46.478Z,1.90
2023-05-18T06:04:16.232Z,2.00
2023-05-18T06:07:43.643Z,1.70
2023-05-18T06:11:11.470Z,1.80
2023-05-18T06:14:39.870Z,2.00
2023-05-18T06:18:07.381Z,2.00
2023-05-18T06:21:35.585Z,2.00
2023-05-18T06:25:03.571Z,2.10
2023-05-18T06:28:53.593Z,1.70
2023-05-18T06:32:31.471Z,1.50
2023-05-18T06:35:59.210Z,1.60
2023-05-18T06:39:26.684Z,1.70
2023-05-18T06:42:53.461Z,1.90
2023-05-18T06:46:41.735Z,1.80
2023-05-18T06:50:15.440Z,1.30
2023-05-18T06:53:42.737Z,1.30
2023-05-18T06:57:11.088Z,1.50
2023-05-18T07:00:39.375Z,1.10
2023-05-18T07:04:08.167Z,1.30
2023-05-18T07:07:34.883Z,0.90
2023-05-18T07:11:02.769Z,1.30
2023-05-18T07:14:29.644Z,1.10
2023-05-18T07:17:58.087Z,1.00
2023-05-18T07:21:25.156Z,1.20
2023-05-18T07:24:52.546Z,0.90
2023-05-18T07:28:19.515Z,1.10
2023-05-18T07:31:46.613Z,0.80
2023-05-18T07:35:13.464Z,1.00
2023-05-18T07:38:40.376Z,0.50
2023-05-18T07:42:08.284Z,0.60
2023-05-18T07:45:35.738Z,0.50
2023-05-18T07:49:04.841Z,0.60
2023-05-18T07:52:32.173Z,0.50
2023-05-18T07:55:59.334Z,0.70
2023-05-18T07:59:25.860Z,0.60
2023-05-18T08:02:53.398Z,0.70
2023-05-18T08:06:20.773Z,0.90
2023-05-18T08:09:47.938Z,0.90
2023-05-18T08:13:15.513Z,1.10
2023-05-18T08:16:42.982Z,1.10
2023-05-18T08:20:12.855Z,1.10
2023-05-18T08:23:40.348Z,1.20
2023-05-18T08:27:10.277Z,0.80
2023-05-18T08:30:37.181Z,1.00
2023-05-18T08:34:04.134Z,0.90
2023-05-18T08:37:32.517Z,0.80
2023-05-18T08:41:09.792Z,0.90
2023-05-18T08:44:45.934Z,0.80
2023-05-18T08:48:14.871Z,0.70
2023-05-18T08:51:47.514Z,0.90
2023-05-18T08:55:16.792Z,1.10
2023-05-18T08:58:50.151Z,0.80
2023-05-18T09:05:44.246Z,0.90
2023-05-18T09:09:11.400Z,1.00
2023-05-18T09:12:40.314Z,1.10
2023-05-18T09:16:08.385Z,1.20
2023-05-18T09:19:35.474Z,0.90
2023-05-18T09:23:02.801Z,1.40
2023-05-18T09:26:29.719Z,1.00
2023-05-18T09:29:58.031Z,1.30
2023-05-18T09:33:25.285Z,0.80
2023-05-18T09:36:54.288Z,1.10
2023-05-18T09:40:29.456Z,1.10
2023-05-18T09:43:57.995Z,1.10
2023-05-18T09:47:29.076Z,1.20
2023-05-18T09:50:55.973Z,0.80
2023-05-18T09:54:24.442Z,1.20
2023-05-18T09:57:52.080Z,0.60
2023-05-18T10:01:19.163Z,0.90
2023-05-18T10:04:48.435Z,0.80
2023-05-18T10:08:17.969Z,0.70
2023-05-18T10:11:45.219Z,0.70
2023-05-18T10:15:18.401Z,0.80
2023-05-18T10:18:47.413Z,0.80
2023-05-18T10:22:17.185Z,0.60
2023-05-18T10:25:47.089Z,0.60
2023-05-18T10:29:14.854Z,0.60
2023-05-18T10:32:44.161Z,0.70
2023-05-18T10:36:13.032Z,0.60
2023-05-18T10:39:41.414Z,1.00
2023-05-18T10:43:09.717Z,0.80
2023-05-18T10:46:38.592Z,0.60
2023-05-18T10:50:08.396Z,0.80
2023-05-18T10:53:36.960Z,0.70
2023-05-18T10:57:03.965Z,0.90
2023-05-18T11:00:32.218Z,0.60
2023-05-18T11:04:03.394Z,0.70
2023-05-18T11:07:31.785Z,0.70
2023-05-18T11:11:08.053Z,0.80
2023-05-18T11:14:35.806Z,0.80
2023-05-18T11:49:29.216Z,0.90
2023-05-18T11:52:53.561Z,0.50
2023-05-18T11:56:17.232Z,0.60
2023-05-18T11:59:42.804Z,0.80
2023-05-18T12:03:08.288Z,0.70
2023-05-18T12:06:32.320Z,0.80
2023-05-18T12:10:03.703Z,0.80
2023-05-18T12:13:29.085Z,0.70
2023-05-18T12:16:53.881Z,0.70
2023-05-18T12:20:19.053Z,0.60
2023-05-18T12:23:42.347Z,0.90
2023-05-18T12:27:08.885Z,0.60
2023-05-18T12:30:35.016Z,0.70
2023-05-18T12:34:01.602Z,0.60
2023-05-18T12:37:34.291Z,0.80
2023-05-18T12:41:01.732Z,0.50
2023-05-18T12:44:25.575Z,0.60
2023-05-18T12:47:53.877Z,0.90
2023-05-18T12:51:20.680Z,0.90
2023-05-18T12:54:54.761Z,0.60
2023-05-18T12:58:23.724Z,0.60
2023-05-18T13:01:49.035Z,0.40
2023-05-18T13:05:14.518Z,0.50
2023-05-18T13:08:38.499Z,0.60
2023-05-18T13:12:07.468Z,0.70
2023-05-18T13:15:36.135Z,0.70
2023-05-18T13:19:02.464Z,0.90
2023-05-18T13:22:26.276Z,1.00
2023-05-18T13:25:51.673Z,0.80
2023-05-18T13:29:15.309Z,1.20
2023-05-18T13:32:38.954Z,0.70
2023-05-18T13:36:02.725Z,0.90
2023-05-18T13:39:26.372Z,1.00
2023-05-18T13:42:49.661Z,1.00
2023-05-18T13:46:13.010Z,0.70
2023-05-18T13:49:36.680Z,0.80
2023-05-18T13:53:01.094Z,0.80
2023-05-18T13:56:24.605Z,0.70
2023-05-18T13:59:48.035Z,0.70
2023-05-18T14:03:11.705Z,0.70
2023-05-18T14:06:35.684Z,0.70
2023-05-18T14:09:58.976Z,0.70
2023-05-18T14:13:22.469Z,0.70
2023-05-18T14:16:45.768Z,0.40
2023-05-18T14:20:11.028Z,0.60
2023-05-18T14:23:34.319Z,0.80
2023-05-18T14:26:57.737Z,0.70
2023-05-18T14:30:21.335Z,1.30
2023-05-18T14:33:44.658Z,1.00
2023-05-18T14:37:08.503Z,0.70
2023-05-18T14:40:32.089Z,0.50
2023-05-18T14:43:56.214Z,0.70
2023-05-18T14:47:19.633Z,0.70
2023-05-18T14:50:43.362Z,0.90
2023-05-18T14:54:07.092Z,0.60
2023-05-18T14:57:31.157Z,0.50
2023-05-18T15:00:55.721Z,0.80
2023-05-18T15:04:21.399Z,0.60
2023-05-18T15:07:44.977Z,0.80
2023-05-18T15:11:08.726Z,0.50
2023-05-18T15:14:32.618Z,0.70
2023-05-18T15:17:56.499Z,0.50
2023-05-18T15:21:19.954Z,0.70
2023-05-18T15:24:45.690Z,0.90
2023-05-18T15:28:10.838Z,0.50
2023-05-18T15:31:37.320Z,0.60
2023-05-18T15:35:01.079Z,0.60
2023-05-18T15:38:25.416Z,0.60
2023-05-18T15:41:49.490Z,0.60
2023-05-18T15:45:13.697Z,0.50
2023-05-18T15:48:37.542Z,0.60
2023-05-18T15:52:05.155Z,0.40
2023-05-18T15:55:29.043Z,0.50
2023-05-18T15:58:52.142Z,0.70
2023-05-18T16:02:18.545Z,0.60
2023-05-18T16:05:43.091Z,0.60
2023-05-18T16:09:09.081Z,0.70
2023-05-18T16:12:32.762Z,0.80
2023-05-18T16:19:18.236Z,0.90
2023-05-18T16:22:42.430Z,0.80
2023-05-18T16:26:06.047Z,0.80
2023-05-18T16:29:29.299Z,0.80
2023-05-18T16:32:53.688Z,0.60
2023-05-18T16:36:18.082Z,0.60
2023-05-18T16:39:42.120Z,0.70
2023-05-18T16:43:06.440Z,0.50
2023-05-18T16:46:29.809Z,0.60
2023-05-18T16:49:53.812Z,0.40
2023-05-18T16:53:17.171Z,0.60
2023-05-18T16:56:40.617Z,0.60
2023-05-18T17:00:09.511Z,0.60
2023-05-18T17:03:36.311Z,0.70
2023-05-18T17:07:01.909Z,0.70
2023-05-18T17:10:27.022Z,0.60
2023-05-18T17:13:52.509Z,0.80
2023-05-18T17:17:16.210Z,0.80
2023-05-18T17:20:39.449Z,0.70
2023-05-18T17:24:03.042Z,0.60
2023-05-18T17:27:26.577Z,0.60
2023-05-18T17:30:52.236Z,0.70
2023-05-18T17:34:15.752Z,0.60
2023-05-18T17:37:46.048Z,1.10
2023-05-18T17:41:10.954Z,1.00
2023-05-18T17:44:37.003Z,0.90
2023-05-18T17:48:01.128Z,0.80
2023-05-18T17:51:25.934Z,1.20
2023-05-18T17:54:51.772Z,0.80
2023-05-18T17:58:17.858Z,0.80
2023-05-18T18:01:42.582Z,0.80
2023-05-18T18:05:06.546Z,1.00
2023-05-18T18:08:30.183Z,0.80
2023-05-18T18:11:56.622Z,0.50
2023-05-18T18:15:22.167Z,0.70
2023-05-18T18:18:46.028Z,0.80
2023-05-18T18:22:10.626Z,0.70
2023-05-18T18:25:34.765Z,0.80
2023-05-18T18:29:01.342Z,1.20
2023-05-18T18:32:25.081Z,1.10
2023-05-18T18:35:49.867Z,1.00
2023-05-18T18:39:16.787Z,0.90
2023-05-18T18:42:41.291Z,0.90
2023-05-18T18:46:05.143Z,1.10
2023-05-18T18:49:30.337Z,1.20
2023-05-18T18:52:53.924Z,1.20
2023-05-18T18:56:21.731Z,1.20
2023-05-18T18:59:46.821Z,1.20
2023-05-18T19:03:10.135Z,1.20
2023-05-18T19:06:36.495Z,1.20
2023-05-18T19:10:01.803Z,1.30
2023-05-18T19:13:25.641Z,1.40
2023-05-18T19:16:49.829Z,1.70
2023-05-18T19:20:13.929Z,1.30
2023-05-18T19:23:39.174Z,1.30
2023-05-18T19:27:03.631Z,1.40
2023-05-18T19:30:29.121Z,1.40
2023-05-18T19:33:55.529Z,1.30
2023-05-18T19:37:21.119Z,1.60
2023-05-18T19:40:47.068Z,1.70
2023-05-18T19:44:16.734Z,1.40
2023-05-18T19:47:41.275Z,1.60
2023-05-18T19:51:06.967Z,1.30
2023-05-18T19:54:32.557Z,1.80
2023-05-18T19:57:58.102Z,1.70
2023-05-18T20:01:24.884Z,1.20
2023-05-18T20:04:49.802Z,1.30
2023-05-18T20:08:14.656Z,1.20
2023-05-18T20:11:39.097Z,1.10
2023-05-18T20:15:03.728Z,1.00
2023-05-18T20:18:28.743Z,1.30
2023-05-18T20:21:53.852Z,1.00
2023-05-18T20:25:20.079Z,1.10
2023-05-18T20:28:43.411Z,1.10
2023-05-18T20:32:09.391Z,1.40
2023-05-18T20:35:34.206Z,1.20
2023-05-18T20:39:02.066Z,1.10
2023-05-18T20:42:38.237Z,1.00
2023-05-18T20:46:04.261Z,1.20
2023-05-18T20:49:28.033Z,1.00
2023-05-18T20:52:52.787Z,1.10
2023-05-18T20:56:17.733Z,1.10
2023-05-18T20:59:43.649Z,1.70
2023-05-18T21:03:08.020Z,1.60
2023-05-18T21:06:40.496Z,1.70
2023-05-18T21:10:11.528Z,1.80
2023-05-18T21:13:36.627Z,1.70
2023-05-18T21:17:01.220Z,2.10
2023-05-18T21:20:26.320Z,1.80
2023-05-18T21:23:49.907Z,1.90
2023-05-18T21:27:13.683Z,1.60
2023-05-18T21:30:37.741Z,1.50
2023-05-18T21:34:04.909Z,1.90
2023-05-18T21:37:30.944Z,1.60
2023-05-18T21:40:56.232Z,1.40
2023-05-18T21:44:20.833Z,1.20
2023-05-18T21:47:45.826Z,1.80
2023-05-18T21:51:18.557Z,1.40
2023-05-18T21:54:43.643Z,1.40
2023-05-18T21:58:07.079Z,1.00
2023-05-18T22:01:31.190Z,1.60
2023-05-18T22:04:55.025Z,1.60
2023-05-18T22:08:19.714Z,1.30
2023-05-18T22:11:43.929Z,1.20
2023-05-18T22:15:10.524Z,1.70
2023-05-18T22:18:36.997Z,1.30
2023-05-18T22:25:24.877Z,1.40
2023-05-18T22:28:48.626Z,1.10
2023-05-18T22:32:12.554Z,1.50
2023-05-18T22:35:36.750Z,1.20
2023-05-18T22:39:00.343Z,1.20
2023-05-18T22:42:23.913Z,1.40
2023-05-18T22:45:47.941Z,1.20
2023-05-18T22:49:11.686Z,1.30
2023-05-18T22:52:36.369Z,1.30
2023-05-18T22:55:59.986Z,1.00
2023-05-18T22:59:23.623Z,1.70
2023-05-18T23:02:46.819Z,1.30
2023-05-18T23:09:32.869Z,1.00
2023-05-18T23:12:57.869Z,1.20
2023-05-18T23:16:22.109Z,1.30
2023-05-18T23:19:47.885Z,1.90
2023-05-18T23:23:11.310Z,1.40
2023-05-18T23:29:57.488Z,1.50
2023-05-18T23:33:22.291Z,1.40
2023-05-18T23:36:48.097Z,1.20
2023-05-18T23:40:16.896Z,1.50
2023-05-18T23:43:41.789Z,1.40
2023-05-18T23:47:06.204Z,1.30
2023-05-18T23:50:30.965Z,1.30
2023-05-18T23:53:55.930Z,1.40
2023-05-18T23:57:20.592Z,2.20
